createdAt,value
2019-05-20T00:02:22.706Z,14.43
2019-05-20T00:04:36.931Z,14.73
2019-05-20T00:07:05.387Z,14.77
2019-05-20T00:09:33.842Z,12.63
2019-05-20T00:12:02.294Z,12.37
2019-05-20T00:14:30.758Z,14.03
2019-05-20T00:16:59.382Z,13.23
2019-05-20T00:19:27.826Z,15.17
2019-05-20T00:21:56.296Z,13.17
2019-05-20T00:24:24.757Z,14.50
2019-05-20T00:26:53.212Z,12.20
2019-05-20T00:29:21.680Z,13.97
2019-05-20T00:31:50.227Z,10.53
2019-05-20T00:34:32.693Z,13.10
2019-05-20T00:36:48.879Z,11.17
2019-05-20T00:39:18.986Z,11.97
2019-05-20T00:41:47.521Z,12.40
2019-05-20T00:44:16.503Z,12.73
2019-05-20T00:46:45.023Z,12.30
2019-05-20T00:49:13.491Z,10.80
2019-05-20T00:51:42.876Z,11.13
2019-05-20T00:54:11.348Z,10.20
2019-05-20T00:56:39.807Z,11.67
2019-05-20T00:59:08.348Z,14.30
2019-05-20T01:01:36.833Z,13.60
2019-05-20T01:04:05.413Z,10.60
2019-05-20T01:06:33.892Z,12.47
2019-05-20T01:09:02.612Z,12.67
2019-05-20T01:11:31.062Z,11.83
2019-05-20T01:13:59.574Z,12.77
2019-05-20T01:16:28.166Z,13.33
2019-05-20T01:18:56.678Z,13.00
2019-05-20T01:21:25.160Z,11.83
2019-05-20T01:23:53.619Z,12.57
2019-05-20T01:26:22.084Z,11.60
2019-05-20T01:28:50.742Z,13.33
2019-05-20T01:31:19.295Z,13.50
2019-05-20T01:33:47.802Z,11.67
2019-05-20T01:36:16.286Z,12.60
2019-05-20T01:38:44.867Z,13.53
2019-05-20T01:41:13.429Z,13.63
2019-05-20T01:43:41.933Z,14.47
2019-05-20T01:46:10.510Z,13.00
2019-05-20T01:48:39.031Z,14.37
2019-05-20T01:51:07.483Z,13.70
2019-05-20T01:53:35.939Z,14.03
2019-05-20T01:56:04.402Z,15.67
2019-05-20T01:58:32.889Z,14.73
2019-05-20T02:01:01.564Z,15.47
2019-05-20T02:03:32.191Z,15.47
2019-05-20T02:06:00.354Z,14.40
2019-05-20T02:08:28.934Z,15.37
2019-05-20T02:10:57.470Z,16.03
2019-05-20T02:13:27.645Z,16.43
2019-05-20T02:16:03.768Z,16.07
2019-05-20T02:18:32.442Z,15.27
2019-05-20T02:21:00.945Z,15.67
2019-05-20T02:23:29.523Z,13.70
2019-05-20T02:25:58.026Z,14.97
2019-05-20T02:28:26.478Z,13.77
2019-05-20T02:30:56.995Z,13.97
2019-05-20T02:33:25.228Z,14.67
2019-05-20T02:35:53.723Z,13.33
2019-05-20T02:38:22.226Z,12.30
2019-05-20T02:40:50.674Z,12.70
2019-05-20T02:43:19.146Z,14.10
2019-05-20T02:45:47.667Z,12.00
2019-05-20T02:48:16.274Z,11.47
2019-05-20T02:50:44.794Z,12.73
2019-05-20T02:53:13.279Z,13.00
2019-05-20T02:55:41.785Z,12.47
2019-05-20T02:58:10.253Z,13.03
2019-05-20T03:00:38.777Z,13.67
2019-05-20T03:03:07.320Z,13.30
2019-05-20T03:05:35.836Z,12.07
2019-05-20T03:08:04.300Z,12.90
2019-05-20T03:10:32.803Z,11.20
2019-05-20T03:13:01.361Z,12.27
2019-05-20T03:15:29.813Z,11.37
2019-05-20T03:17:58.787Z,12.03
2019-05-20T03:20:27.258Z,12.70
2019-05-20T03:22:55.726Z,11.90
2019-05-20T03:25:24.188Z,12.37
2019-05-20T03:27:52.755Z,11.90
2019-05-20T03:30:21.335Z,13.17
2019-05-20T03:32:49.808Z,13.30
2019-05-20T03:35:18.273Z,12.23
2019-05-20T03:37:46.781Z,12.43
2019-05-20T03:40:15.310Z,12.37
2019-05-20T03:42:44.045Z,11.63
2019-05-20T03:45:12.829Z,13.20
2019-05-20T03:47:41.335Z,13.47
2019-05-20T03:50:10.089Z,13.57
2019-05-20T03:52:38.535Z,12.40
2019-05-20T03:55:10.149Z,13.57
2019-05-20T03:57:38.679Z,12.57
2019-05-20T04:00:08.501Z,14.00
2019-05-20T04:02:36.972Z,12.93
2019-05-20T04:05:05.777Z,11.90
2019-05-20T04:07:34.254Z,14.00
2019-05-20T04:10:02.787Z,12.07
2019-05-20T04:12:31.248Z,12.23
2019-05-20T04:14:59.711Z,12.60
2019-05-20T04:17:28.244Z,11.83
2019-05-20T04:19:56.723Z,14.07
2019-05-20T04:22:25.164Z,15.63
2019-05-20T04:24:53.657Z,14.07
2019-05-20T04:27:22.115Z,8.87
2019-05-20T04:29:50.639Z,10.13
2019-05-20T04:32:19.120Z,10.60
2019-05-20T04:34:47.706Z,10.70
2019-05-20T04:37:16.492Z,10.03
2019-05-20T04:39:44.936Z,9.60
2019-05-20T04:42:13.531Z,10.87
2019-05-20T04:44:42.082Z,12.20
2019-05-20T04:47:10.705Z,11.93
2019-05-20T04:49:39.178Z,10.73
2019-05-20T04:52:07.774Z,10.73
2019-05-20T04:54:36.225Z,10.47
2019-05-20T04:57:04.761Z,10.60
2019-05-20T04:59:33.242Z,11.87
2019-05-20T05:02:01.701Z,11.43
2019-05-20T05:04:30.219Z,11.23
2019-05-20T05:06:58.731Z,10.10
2019-05-20T05:09:27.246Z,10.90
2019-05-20T05:11:55.738Z,11.47
2019-05-20T05:14:24.176Z,10.83
2019-05-20T05:16:52.648Z,11.83
2019-05-20T05:19:21.111Z,11.27
2019-05-20T05:21:49.674Z,9.50
2019-05-20T05:24:18.274Z,9.93
2019-05-20T05:26:47.915Z,9.40
2019-05-20T05:29:16.577Z,10.37
2019-05-20T05:31:45.116Z,10.60
2019-05-20T05:34:13.702Z,10.10
2019-05-20T05:36:42.172Z,8.83
2019-05-20T05:39:10.691Z,9.97
2019-05-20T05:41:39.395Z,8.80
2019-05-20T05:44:07.922Z,10.03
2019-05-20T05:46:36.454Z,9.23
2019-05-20T05:49:05.020Z,8.60
2019-05-20T05:51:33.491Z,7.80
2019-05-20T05:54:01.961Z,7.77
2019-05-20T05:56:30.502Z,7.90
2019-05-20T05:58:58.958Z,8.43
2019-05-20T06:01:27.503Z,7.40
2019-05-20T06:03:55.979Z,7.20
2019-05-20T06:06:24.500Z,7.57
2019-05-20T06:08:53.045Z,7.77
2019-05-20T06:11:21.579Z,8.33
2019-05-20T06:13:50.103Z,6.87
2019-05-20T06:16:35.314Z,7.37
2019-05-20T06:18:49.663Z,7.90
2019-05-20T06:21:18.116Z,7.87
2019-05-20T06:23:46.603Z,7.60
2019-05-20T06:26:15.099Z,7.70
2019-05-20T06:28:43.587Z,7.53
2019-05-20T06:31:12.176Z,8.50
2019-05-20T06:33:48.358Z,7.53
2019-05-20T06:36:26.409Z,7.53
2019-05-20T06:38:49.873Z,6.03
2019-05-20T06:41:18.433Z,8.30
2019-05-20T06:43:47.080Z,7.63
2019-05-20T06:46:15.535Z,8.03
2019-05-20T06:48:44.008Z,8.03
2019-05-20T06:51:12.462Z,7.93
2019-05-20T06:53:41.087Z,8.07
2019-05-20T06:56:17.514Z,8.20
2019-05-20T06:58:46.077Z,8.83
2019-05-20T07:01:16.822Z,6.80
2019-05-20T07:03:45.364Z,7.43
2019-05-20T07:06:13.901Z,6.33
2019-05-20T07:08:42.356Z,6.07
2019-05-20T07:11:10.883Z,6.07
2019-05-20T07:13:39.415Z,5.83
2019-05-20T07:16:07.955Z,6.10
2019-05-20T07:18:36.999Z,6.40
2019-05-20T07:21:05.503Z,6.17
2019-05-20T07:23:33.960Z,6.60
2019-05-20T07:26:02.439Z,6.17
2019-05-20T07:28:31.025Z,7.73
2019-05-20T07:30:59.511Z,7.63
2019-05-20T07:33:28.097Z,6.90
2019-05-20T07:35:56.640Z,6.93
2019-05-20T07:38:25.221Z,6.70
2019-05-20T07:40:53.895Z,7.23
2019-05-20T07:43:22.494Z,7.30
2019-05-20T07:45:51.523Z,7.10
2019-05-20T07:48:20.632Z,7.80
2019-05-20T07:50:50.621Z,7.73
2019-05-20T07:53:19.916Z,7.20
2019-05-20T07:55:59.760Z,8.00
2019-05-20T07:58:33.486Z,7.20
2019-05-20T08:01:00.597Z,7.77
2019-05-20T08:03:29.087Z,6.93
2019-05-20T08:05:57.733Z,7.00
2019-05-20T08:08:26.418Z,7.37
2019-05-20T08:10:55.303Z,7.37
2019-05-20T08:13:23.836Z,7.50
2019-05-20T08:15:52.374Z,7.40
2019-05-20T08:18:20.833Z,7.87
2019-05-20T08:20:52.127Z,7.90
2019-05-20T08:23:20.675Z,7.87
2019-05-20T08:25:49.236Z,7.20
2019-05-20T08:28:17.693Z,7.57
2019-05-20T08:30:46.182Z,7.70
2019-05-20T08:33:14.690Z,7.57
2019-05-20T08:35:43.276Z,7.33
2019-05-20T08:38:11.815Z,7.50
2019-05-20T08:40:41.950Z,6.70
2019-05-20T08:43:10.754Z,7.30
2019-05-20T08:45:39.203Z,7.20
2019-05-20T08:48:07.668Z,7.43
2019-05-20T08:50:39.857Z,7.33
2019-05-20T08:53:08.624Z,7.37
2019-05-20T08:55:37.121Z,7.17
2019-05-20T08:58:05.664Z,6.87
2019-05-20T09:00:34.170Z,7.23
2019-05-20T09:03:02.702Z,7.50
2019-05-20T09:05:31.221Z,7.77
2019-05-20T09:08:03.354Z,7.70
2019-05-20T09:10:29.944Z,6.93
2019-05-20T09:12:58.428Z,8.33
2019-05-20T09:15:26.985Z,7.17
2019-05-20T09:17:55.558Z,7.53
2019-05-20T09:20:24.176Z,7.77
2019-05-20T09:22:52.996Z,7.90
2019-05-20T09:25:30.023Z,7.83
2019-05-20T09:27:59.044Z,6.50
2019-05-20T09:30:27.688Z,7.30
2019-05-20T09:32:56.719Z,7.23
2019-05-20T09:35:25.228Z,7.00
2019-05-20T09:37:53.683Z,7.30
2019-05-20T09:40:45.928Z,7.53
2019-05-20T09:43:14.463Z,7.30
2019-05-20T09:45:42.972Z,7.70
2019-05-20T09:48:11.649Z,7.30
2019-05-20T09:50:40.168Z,7.57
2019-05-20T09:53:10.420Z,6.40
2019-05-20T09:55:39.071Z,7.20
2019-05-20T09:58:08.106Z,6.53
2019-05-20T10:00:36.696Z,7.07
2019-05-20T10:03:06.232Z,6.87
2019-05-20T10:05:37.339Z,7.03
2019-05-20T10:08:05.964Z,7.27
2019-05-20T10:10:34.460Z,7.17
2019-05-20T10:13:02.938Z,8.73
2019-05-20T10:15:31.631Z,8.13
2019-05-20T10:18:00.074Z,8.47
2019-05-20T10:20:28.542Z,8.00
2019-05-20T10:22:56.983Z,8.93
2019-05-20T10:25:25.466Z,8.33
2019-05-20T10:27:57.319Z,8.27
2019-05-20T10:30:24.411Z,9.60
2019-05-20T10:32:52.872Z,9.50
2019-05-20T10:35:21.426Z,9.17
2019-05-20T10:37:49.928Z,9.43
2019-05-20T10:40:19.198Z,9.37
2019-05-20T10:42:47.653Z,10.67
2019-05-20T10:45:16.184Z,9.23
2019-05-20T10:47:44.729Z,10.33
2019-05-20T10:50:13.542Z,10.30
2019-05-20T10:52:41.994Z,9.70
2019-05-20T10:55:11.513Z,9.47
2019-05-20T10:57:40.026Z,9.30
2019-05-20T11:00:09.309Z,9.73
2019-05-20T11:02:37.856Z,9.70
2019-05-20T11:05:07.678Z,9.87
2019-05-20T11:07:36.192Z,9.77
2019-05-20T11:10:06.659Z,9.07
2019-05-20T11:12:35.204Z,9.23
2019-05-20T11:15:05.599Z,8.87
2019-05-20T11:17:34.191Z,9.77
2019-05-20T11:20:02.813Z,9.03
2019-05-20T11:22:31.301Z,9.63
2019-05-20T11:24:59.800Z,9.40
2019-05-20T11:27:28.659Z,9.07
2019-05-20T11:29:57.131Z,9.10
2019-05-20T11:32:25.598Z,9.33
2019-05-20T11:34:54.123Z,9.40
2019-05-20T11:37:22.619Z,9.00
2019-05-20T11:39:51.076Z,9.90
2019-05-20T11:42:19.536Z,9.80
2019-05-20T11:44:47.991Z,9.63
2019-05-20T11:47:16.671Z,9.37
2019-05-20T11:49:45.195Z,9.80
2019-05-20T11:52:13.738Z,9.87
2019-05-20T11:54:42.253Z,9.47
2019-05-20T11:57:10.842Z,9.93
2019-05-20T11:59:39.427Z,9.27
2019-05-20T12:02:07.887Z,8.70
2019-05-20T12:04:36.347Z,9.13
2019-05-20T12:07:04.952Z,9.33
2019-05-20T12:09:48.116Z,8.20
2019-05-20T12:12:05.538Z,9.10
2019-05-20T12:14:34.257Z,9.50
2019-05-20T12:17:03.057Z,9.73
2019-05-20T12:19:31.596Z,8.87
2019-05-20T12:22:00.185Z,9.00
2019-05-20T12:24:28.661Z,9.10
2019-05-20T12:26:57.127Z,9.90
2019-05-20T12:29:25.637Z,9.23
2019-05-20T12:31:54.089Z,9.13
2019-05-20T12:34:22.603Z,8.20
2019-05-20T12:36:51.080Z,8.60
2019-05-20T12:39:19.701Z,8.53
2019-05-20T12:41:48.264Z,8.30
2019-05-20T12:44:16.735Z,8.43
2019-05-20T12:46:45.220Z,10.13
2019-05-20T12:49:13.925Z,9.07
2019-05-20T12:51:42.503Z,9.30
2019-05-20T12:54:11.074Z,8.93
2019-05-20T12:56:39.651Z,8.27
2019-05-20T12:59:08.245Z,8.27
2019-05-20T13:01:36.768Z,8.87
2019-05-20T13:04:05.363Z,8.33
2019-05-20T13:06:33.975Z,8.13
2019-05-20T13:09:11.507Z,7.80
2019-05-20T13:11:39.981Z,7.53
2019-05-20T13:14:08.479Z,7.07
2019-05-20T13:16:37.057Z,7.20
2019-05-20T13:19:05.586Z,6.20
2019-05-20T13:21:34.095Z,6.70
2019-05-20T13:24:02.546Z,6.97
2019-05-20T13:26:31.034Z,7.07
2019-05-20T13:28:59.973Z,5.97
2019-05-20T13:31:28.808Z,6.53
2019-05-20T13:33:57.491Z,6.90
2019-05-20T13:36:25.967Z,7.40
2019-05-20T13:38:54.498Z,6.63
2019-05-20T13:41:22.990Z,6.87
2019-05-20T13:43:51.557Z,6.93
2019-05-20T13:46:20.085Z,7.57
2019-05-20T13:48:48.534Z,6.97
2019-05-20T13:51:17.056Z,6.77
2019-05-20T13:53:45.602Z,7.93
2019-05-20T13:56:14.175Z,7.57
2019-05-20T13:58:42.682Z,8.37
2019-05-20T14:01:11.151Z,7.70
2019-05-20T14:03:39.610Z,8.63
2019-05-20T14:06:08.166Z,8.67
2019-05-20T14:08:36.665Z,9.83
2019-05-20T14:11:05.339Z,9.30
2019-05-20T14:13:33.877Z,9.17
2019-05-20T14:16:02.342Z,9.07
2019-05-20T14:18:30.878Z,8.80
2019-05-20T14:20:59.354Z,9.00
2019-05-20T14:23:27.821Z,8.90
2019-05-20T14:25:56.286Z,9.27
2019-05-20T14:28:24.876Z,8.90
2019-05-20T14:30:53.328Z,8.97
2019-05-20T14:33:21.797Z,9.17
2019-05-20T14:35:50.263Z,9.53
2019-05-20T14:38:18.711Z,8.90
2019-05-20T14:40:47.220Z,9.70
2019-05-20T14:43:15.751Z,9.57
2019-05-20T14:45:44.244Z,9.33
2019-05-20T14:48:12.804Z,9.90
2019-05-20T14:50:41.341Z,9.80
2019-05-20T14:53:09.932Z,10.60
2019-05-20T14:55:42.662Z,10.03
2019-05-20T14:58:08.703Z,10.80
2019-05-20T15:00:37.255Z,10.27
2019-05-20T15:03:05.736Z,12.03
2019-05-20T15:05:34.366Z,12.13
2019-05-20T15:08:03.173Z,11.43
2019-05-20T15:10:31.683Z,11.67
2019-05-20T15:13:00.140Z,10.47
2019-05-20T15:15:28.621Z,12.20
2019-05-20T15:17:57.198Z,11.80
2019-05-20T15:20:25.678Z,17.20
2019-05-20T15:22:54.199Z,12.27
2019-05-20T15:25:22.734Z,14.20
2019-05-20T15:27:51.204Z,14.33
2019-05-20T15:30:20.653Z,14.73
2019-05-20T15:32:49.244Z,15.30
2019-05-20T15:35:17.708Z,14.77
2019-05-20T15:37:46.170Z,13.30
2019-05-20T15:40:14.881Z,14.23
2019-05-20T15:42:43.443Z,13.03
2019-05-20T15:45:12.466Z,11.63
2019-05-20T15:47:40.938Z,10.80
2019-05-20T15:50:10.608Z,10.83
2019-05-20T15:52:39.468Z,10.13
2019-05-20T15:55:08.364Z,10.93
2019-05-20T15:57:36.849Z,11.80
2019-05-20T16:00:07.751Z,11.43
2019-05-20T16:02:36.622Z,12.77
2019-05-20T16:05:07.019Z,11.93
2019-05-20T16:07:35.530Z,13.07
2019-05-20T16:10:04.943Z,12.77
2019-05-20T16:12:34.346Z,10.90
2019-05-20T16:15:03.851Z,12.03
2019-05-20T16:17:32.341Z,12.17
2019-05-20T16:20:00.907Z,9.83
2019-05-20T16:22:29.635Z,9.63
2019-05-20T16:24:58.174Z,11.27
2019-05-20T16:27:26.686Z,10.97
2019-05-20T16:30:06.021Z,10.97
2019-05-20T16:32:25.480Z,10.50
2019-05-20T16:34:53.957Z,9.00
2019-05-20T16:37:22.477Z,9.20
2019-05-20T16:39:50.943Z,9.43
2019-05-20T16:42:19.648Z,9.43
2019-05-20T16:44:48.190Z,10.20
2019-05-20T16:47:16.663Z,11.70
2019-05-20T16:49:45.217Z,11.83
2019-05-20T16:52:13.671Z,11.57
2019-05-20T16:54:42.162Z,13.23
2019-05-20T16:57:10.704Z,12.03
2019-05-20T16:59:39.245Z,11.97
2019-05-20T17:02:07.863Z,12.60
2019-05-20T17:04:36.352Z,13.10
2019-05-20T17:07:07.494Z,12.57
2019-05-20T17:09:35.938Z,12.23
2019-05-20T17:12:04.587Z,11.93
2019-05-20T17:14:33.047Z,11.20
2019-05-20T17:17:01.736Z,11.30
2019-05-20T17:19:30.210Z,11.90
2019-05-20T17:21:58.663Z,11.77
2019-05-20T17:24:27.205Z,13.07
2019-05-20T17:26:55.726Z,12.57
2019-05-20T17:29:24.241Z,12.77
2019-05-20T17:31:52.833Z,12.37
2019-05-20T17:34:21.294Z,12.30
2019-05-20T17:36:49.891Z,12.00
2019-05-20T17:39:18.472Z,13.30
2019-05-20T17:41:47.149Z,12.97
2019-05-20T17:44:15.733Z,12.37
2019-05-20T17:46:44.211Z,12.33
2019-05-20T17:49:12.675Z,14.57
2019-05-20T17:51:43.319Z,11.00
2019-05-20T17:54:13.043Z,11.93
2019-05-20T17:56:41.585Z,12.17
2019-05-20T17:59:10.082Z,12.13
2019-05-20T18:01:38.617Z,11.03
2019-05-20T18:04:07.093Z,13.00
2019-05-20T18:06:35.790Z,11.60
2019-05-20T18:09:07.196Z,11.83
2019-05-20T18:11:35.890Z,13.20
2019-05-20T18:14:05.316Z,14.10
2019-05-20T18:16:33.883Z,13.57
2019-05-20T18:19:02.411Z,15.17
2019-05-20T18:21:30.867Z,15.13
2019-05-20T18:23:59.437Z,15.67
2019-05-20T18:26:28.136Z,15.90
2019-05-20T18:28:56.695Z,17.63
2019-05-20T18:31:32.581Z,17.30
2019-05-20T18:33:55.364Z,16.77
2019-05-20T18:36:23.841Z,16.67
2019-05-20T18:38:52.296Z,17.33
2019-05-20T18:41:20.759Z,17.03
2019-05-20T18:43:49.950Z,17.00
2019-05-20T18:46:18.419Z,17.50
2019-05-20T18:48:46.953Z,18.63
2019-05-20T18:51:15.448Z,17.83
2019-05-20T18:53:44.131Z,16.83
2019-05-20T18:56:12.676Z,17.63
2019-05-20T18:58:41.211Z,18.53
2019-05-20T19:01:09.763Z,18.03
2019-05-20T19:03:41.209Z,17.53
2019-05-20T19:06:10.018Z,18.90
2019-05-20T19:08:38.553Z,19.23
2019-05-20T19:11:07.283Z,18.30
2019-05-20T19:13:35.795Z,19.43
2019-05-20T19:16:04.502Z,18.03
2019-05-20T19:18:32.958Z,18.10
2019-05-20T19:21:01.643Z,17.67
2019-05-20T19:23:30.174Z,18.30
2019-05-20T19:25:58.771Z,19.87
2019-05-20T19:28:27.441Z,17.17
2019-05-20T19:30:55.907Z,17.73
2019-05-20T19:33:24.650Z,17.63
2019-05-20T19:35:53.206Z,18.53
2019-05-20T19:38:22.035Z,19.40
2019-05-20T19:40:50.620Z,19.50
2019-05-20T19:43:19.173Z,17.73
2019-05-20T19:45:47.642Z,18.17
2019-05-20T19:48:16.134Z,18.17
2019-05-20T19:50:44.689Z,18.40
2019-05-20T19:53:13.526Z,17.70
2019-05-20T19:55:42.142Z,18.87
2019-05-20T19:58:13.494Z,18.13
2019-05-20T20:00:41.974Z,19.70
2019-05-20T20:03:10.497Z,18.37
2019-05-20T20:05:38.989Z,18.80
2019-05-20T20:08:07.578Z,18.73
2019-05-20T20:10:38.468Z,21.57
2019-05-20T20:13:07.044Z,18.10
2019-05-20T20:15:35.583Z,18.57
2019-05-20T20:18:04.141Z,18.77
2019-05-20T20:20:34.131Z,18.20
2019-05-20T20:23:02.616Z,19.70
2019-05-20T20:25:31.200Z,18.70
2019-05-20T20:27:59.817Z,19.13
2019-05-20T20:30:28.581Z,19.47
2019-05-20T20:32:57.094Z,18.87
2019-05-20T20:35:37.297Z,19.03
2019-05-20T20:37:55.819Z,19.53
2019-05-20T20:40:24.284Z,20.20
2019-05-20T20:42:52.731Z,20.17
2019-05-20T20:45:21.207Z,19.50
2019-05-20T20:47:49.731Z,20.17
2019-05-20T20:50:21.366Z,19.70
2019-05-20T20:52:49.848Z,21.17
2019-05-20T20:55:18.303Z,21.60
2019-05-20T20:57:46.757Z,21.10
2019-05-20T21:00:16.388Z,21.97
2019-05-20T21:02:52.777Z,20.93
2019-05-20T21:05:15.383Z,22.00
2019-05-20T21:07:43.927Z,22.10
2019-05-20T21:10:13.037Z,23.20
2019-05-20T21:12:41.640Z,23.37
2019-05-20T21:15:10.723Z,23.47
2019-05-20T21:17:39.314Z,24.13
2019-05-20T21:20:08.348Z,23.47
2019-05-20T21:22:36.820Z,22.73
2019-05-20T21:25:06.303Z,23.37
2019-05-20T21:27:34.807Z,25.57
2019-05-20T21:30:04.972Z,22.73
2019-05-20T21:32:33.506Z,23.93
2019-05-20T21:35:01.991Z,24.33
2019-05-20T21:37:30.554Z,24.50
2019-05-20T21:39:59.059Z,25.03
2019-05-20T21:42:27.538Z,24.90
2019-05-20T21:44:56.187Z,24.97
2019-05-20T21:47:24.675Z,25.03
2019-05-20T21:49:53.155Z,24.90
2019-05-20T21:52:21.681Z,26.10
2019-05-20T21:54:50.156Z,27.10
2019-05-20T21:57:18.679Z,25.60
2019-05-20T21:59:47.222Z,25.83
2019-05-20T22:02:15.774Z,26.27
2019-05-20T22:04:44.235Z,26.30
2019-05-20T22:07:12.699Z,25.63
2019-05-20T22:09:41.258Z,25.67
2019-05-20T22:12:09.847Z,24.83
2019-05-20T22:14:38.320Z,24.30
2019-05-20T22:17:06.790Z,25.67
2019-05-20T22:19:35.267Z,24.53
2019-05-20T22:22:20.764Z,23.63
2019-05-20T22:24:49.789Z,23.00
2019-05-20T22:27:18.291Z,21.90
2019-05-20T22:29:48.035Z,22.77
2019-05-20T22:32:16.604Z,22.83
2019-05-20T22:34:53.225Z,23.13
2019-05-20T22:37:15.298Z,21.90
2019-05-20T22:39:43.807Z,21.80
2019-05-20T22:42:12.327Z,21.73
2019-05-20T22:44:40.822Z,21.20
2019-05-20T22:47:09.268Z,21.40
2019-05-20T22:49:38.022Z,20.10
2019-05-20T22:52:06.602Z,19.67
2019-05-20T22:54:35.111Z,20.77
2019-05-20T22:57:03.573Z,20.40
2019-05-20T22:59:32.222Z,19.83
2019-05-20T23:02:00.763Z,17.17
2019-05-20T23:04:29.405Z,15.30
2019-05-20T23:06:57.922Z,15.20
2019-05-20T23:09:26.493Z,15.37
2019-05-20T23:11:55.032Z,13.47
2019-05-20T23:14:23.857Z,13.63
2019-05-20T23:16:52.327Z,13.57
2019-05-20T23:19:20.866Z,12.43
2019-05-20T23:21:49.323Z,13.50
2019-05-20T23:24:17.890Z,13.67
2019-05-20T23:26:46.434Z,13.43
2019-05-20T23:29:15.007Z,13.27
2019-05-20T23:31:43.628Z,13.67
2019-05-20T23:34:13.307Z,13.60
2019-05-20T23:36:42.031Z,12.53
2019-05-20T23:39:10.602Z,12.47
2019-05-20T23:41:39.304Z,13.47
2019-05-20T23:44:07.824Z,12.40
2019-05-20T23:46:36.297Z,12.80
2019-05-20T23:49:04.818Z,12.97
2019-05-20T23:51:33.295Z,13.63
2019-05-20T23:54:01.739Z,12.40
2019-05-20T23:56:30.204Z,12.17
2019-05-20T23:58:58.750Z,11.93
